Time;durP1;ratioP1;P1;durP2;ratioP2;P2;SDS_P1;SDS_P2;PMS_P1;PMS_P2;Temp;Humidity;BMP_temperature;BMP_pressure;BME280_temperature;BME280_humidity;BME280_pressure;Samples;Min_cycle;Max_cycle;Signal;HPM_P1;HPM_P2
2023/07/18 00:01:07;;;;;;;;;;;16.50;73.40;;;;;;5116189;28;20359;-29
2023/07/18 00:03:33;;;;;;;;;;;16.50;73.40;;;;;;5116162;28;20002;-30
2023/07/18 00:05:58;;;;;;;;;;;16.50;73.40;;;;;;5116202;28;19920;-30
2023/07/18 00:08:24;;;;;;;;;;;16.50;73.40;;;;;;5116156;28;19955;-30
2023/07/18 00:10:49;;;;;;;;;;;16.50;73.50;;;;;;5116070;28;19912;-33
2023/07/18 00:13:15;;;;;;;;;;;16.50;73.60;;;;;;5116517;28;19918;-31
2023/07/18 00:15:40;;;;;;;;;;;16.50;73.70;;;;;;5115896;28;20053;-33
2023/07/18 00:18:06;;;;;;;;;;;16.40;73.80;;;;;;5116172;28;20374;-31
2023/07/18 00:20:32;;;;;;;;;;;16.40;74.50;;;;;;5116399;28;19947;-31
2023/07/18 00:22:59;;;;;;;;;;;16.40;73.90;;;;;;5115864;28;20271;-38
2023/07/18 00:25:24;;;;;;;;;;;16.40;74.00;;;;;;5115989;28;20283;-30
2023/07/18 00:27:51;;;;;;;;;;;16.40;74.00;;;;;;5116006;28;19919;-33
2023/07/18 00:30:17;;;;;;;;;;;16.40;74.00;;;;;;5115639;28;19918;-34
2023/07/18 00:32:44;;;;;;;;;;;16.40;74.10;;;;;;5115897;28;20002;-31
2023/07/18 00:35:11;;;;;;;;;;;16.40;74.50;;;;;;5115607;28;19915;-32
2023/07/18 00:37:38;;;;;;;;;;;16.40;74.20;;;;;;5115880;28;20256;-33
2023/07/18 00:40:10;;;;;;;;;;;16.40;74.20;;;;;;5115696;28;19998;-32
2023/07/18 00:42:35;;;;;;;;;;;16.40;74.30;;;;;;5115422;28;19912;-33
2023/07/18 00:45:01;;;;;;;;;;;16.30;74.20;;;;;;5115644;28;19918;-33
2023/07/18 00:47:27;;;;;;;;;;;16.40;74.30;;;;;;5115214;28;20034;-33
2023/07/18 00:49:52;;;;;;;;;;;16.30;74.40;;;;;;5115394;28;20422;-33
2023/07/18 00:52:18;;;;;;;;;;;16.30;74.50;;;;;;5115441;28;20287;-33
2023/07/18 00:54:44;;;;;;;;;;;16.30;74.50;;;;;;5115088;28;20019;-33
2023/07/18 00:57:10;;;;;;;;;;;16.30;74.60;;;;;;5115455;28;19919;-33
2023/07/18 00:59:37;;;;;;;;;;;16.20;74.60;;;;;;5114974;28;19920;-32
2023/07/18 01:02:02;;;;;;;;;;;16.20;74.70;;;;;;5115428;28;19911;-31
2023/07/18 01:04:28;;;;;;;;;;;16.20;74.90;;;;;;5115205;28;19965;-39
2023/07/18 01:06:54;;;;;;;;;;;16.20;75.00;;;;;;5115242;28;20291;-35
2023/07/18 01:09:19;;;;;;;;;;;16.10;75.10;;;;;;5114981;28;19919;-32
2023/07/18 01:11:45;;;;;;;;;;;16.00;75.10;;;;;;5114940;28;19919;-31
2023/07/18 01:14:10;;;;;;;;;;;16.00;75.20;;;;;;5114826;28;19919;-31
2023/07/18 01:16:36;;;;;;;;;;;15.90;75.40;;;;;;5114802;28;19915;-32
2023/07/18 01:19:01;;;;;;;;;;;15.90;75.50;;;;;;5114801;28;19919;-32
2023/07/18 01:21:27;;;;;;;;;;;15.80;75.50;;;;;;5114690;28;19916;-31
2023/07/18 01:23:53;;;;;;;;;;;15.80;75.60;;;;;;5115108;28;20440;-31
2023/07/18 01:26:18;;;;;;;;;;;15.80;75.70;;;;;;5114853;28;20351;-32
2023/07/18 01:28:44;;;;;;;;;;;15.80;75.80;;;;;;5114946;28;19955;-31
2023/07/18 01:31:10;;;;;;;;;;;15.70;75.80;;;;;;5114801;28;19935;-34
2023/07/18 01:33:35;;;;;;;;;;;15.70;75.80;;;;;;5114479;28;19966;-31
2023/07/18 01:36:01;;;;;;;;;;;15.70;75.90;;;;;;5114369;28;20349;-32
2023/07/18 01:38:30;;;;;;;;;;;15.60;76.00;;;;;;5114140;28;19923;-32
2023/07/18 01:40:56;;;;;;;;;;;15.60;76.00;;;;;;5114226;28;19918;-30
2023/07/18 01:43:24;;;;;;;;;;;15.50;76.60;;;;;;5114350;28;19962;-30
2023/07/18 01:45:50;;;;;;;;;;;15.50;76.10;;;;;;5114113;28;19911;-31
2023/07/18 01:48:16;;;;;;;;;;;15.50;76.20;;;;;;5114340;28;19919;-33
2023/07/18 01:50:42;;;;;;;;;;;15.40;76.30;;;;;;5113989;28;19912;-31
2023/07/18 01:53:08;;;;;;;;;;;15.40;76.30;;;;;;5114103;28;19916;-29
2023/07/18 01:55:33;;;;;;;;;;;15.40;76.30;;;;;;5114285;28;19919;-29
2023/07/18 01:57:59;;;;;;;;;;;15.40;76.40;;;;;;5113939;28;19912;-37
2023/07/18 02:00:24;;;;;;;;;;;15.30;76.40;;;;;;5113845;28;20340;-31
2023/07/18 02:02:51;;;;;;;;;;;15.30;76.50;;;;;;5113858;28;19934;-30
2023/07/18 02:05:21;;;;;;;;;;;15.30;76.50;;;;;;5113358;28;19912;-31
2023/07/18 02:07:47;;;;;;;;;;;15.30;76.60;;;;;;5113894;28;19984;-30
2023/07/18 02:10:14;;;;;;;;;;;15.30;76.60;;;;;;5114082;28;19912;-30
2023/07/18 02:12:40;;;;;;;;;;;15.30;76.70;;;;;;5114381;28;19913;-31
2023/07/18 02:15:06;;;;;;;;;;;15.20;76.70;;;;;;5113635;28;19919;-31
2023/07/18 02:17:35;;;;;;;;;;;15.20;76.70;;;;;;5114350;28;19912;-30
2023/07/18 02:20:05;;;;;;;;;;;15.20;76.70;;;;;;5113782;28;19920;-31
2023/07/18 02:22:31;;;;;;;;;;;15.20;76.80;;;;;;5095298;28;19934;-31
2023/07/18 02:24:56;;;;;;;;;;;15.20;76.80;;;;;;5113524;28;19911;-31
2023/07/18 02:27:22;;;;;;;;;;;15.20;76.80;;;;;;5113731;28;20139;-31
2023/07/18 02:29:47;;;;;;;;;;;15.20;76.80;;;;;;5113798;28;19916;-34
2023/07/18 02:32:14;;;;;;;;;;;15.20;76.90;;;;;;5113445;28;20250;-33
2023/07/18 02:34:39;;;;;;;;;;;15.20;76.90;;;;;;5113302;28;19972;-33
2023/07/18 02:37:05;;;;;;;;;;;15.20;77.00;;;;;;5113685;28;19912;-31
2023/07/18 02:39:32;;;;;;;;;;;15.10;77.00;;;;;;5113217;28;19916;-31
2023/07/18 02:41:58;;;;;;;;;;;15.10;77.00;;;;;;5113314;28;19998;-29
2023/07/18 02:44:23;;;;;;;;;;;15.00;77.10;;;;;;5113180;28;19958;-34
2023/07/18 02:46:49;;;;;;;;;;;15.00;77.20;;;;;;5112875;28;19916;-31
2023/07/18 02:49:14;;;;;;;;;;;15.00;77.40;;;;;;5113179;28;20391;-31
2023/07/18 02:51:40;;;;;;;;;;;14.90;77.40;;;;;;5113351;28;20049;-30
2023/07/18 02:54:05;;;;;;;;;;;14.90;77.50;;;;;;5113017;28;19942;-31
2023/07/18 02:56:32;;;;;;;;;;;14.90;77.50;;;;;;5113084;28;19919;-32
2023/07/18 02:58:57;;;;;;;;;;;14.90;77.50;;;;;;5112945;28;19924;-31
2023/07/18 03:01:23;;;;;;;;;;;14.90;77.60;;;;;;5113023;28;19959;-30
2023/07/18 03:03:48;;;;;;;;;;;14.90;77.60;;;;;;5112863;28;19919;-29
2023/07/18 03:06:14;;;;;;;;;;;14.90;77.60;;;;;;5113158;28;19911;-29
2023/07/18 03:08:40;;;;;;;;;;;14.90;77.60;;;;;;5112741;28;20452;-30
2023/07/18 03:11:05;;;;;;;;;;;14.90;77.60;;;;;;5112786;28;20367;-33
2023/07/18 03:13:31;;;;;;;;;;;14.90;77.60;;;;;;5112786;28;19911;-32
2023/07/18 03:15:56;;;;;;;;;;;14.90;77.70;;;;;;5112078;28;19912;-30
2023/07/18 03:18:22;;;;;;;;;;;14.80;77.70;;;;;;5094327;28;20580;-31
2023/07/18 03:20:48;;;;;;;;;;;14.80;77.70;;;;;;5113015;28;19923;-30
2023/07/18 03:23:13;;;;;;;;;;;14.80;77.80;;;;;;5112772;28;20263;-31
2023/07/18 03:25:39;;;;;;;;;;;14.80;77.90;;;;;;5112594;28;19915;-30
2023/07/18 03:28:04;;;;;;;;;;;14.70;77.90;;;;;;5112883;28;20002;-30
2023/07/18 03:30:30;;;;;;;;;;;14.70;77.90;;;;;;5112655;28;19918;-31
2023/07/18 03:32:56;;;;;;;;;;;14.70;78.00;;;;;;5094372;28;20435;-32
2023/07/18 03:35:21;;;;;;;;;;;14.70;78.00;;;;;;5112650;28;19961;-32
2023/07/18 03:37:47;;;;;;;;;;;14.70;78.10;;;;;;5112566;28;19923;-33
2023/07/18 03:40:15;;;;;;;;;;;14.70;78.10;;;;;;5112796;28;19916;-30
2023/07/18 03:42:42;;;;;;;;;;;14.60;78.20;;;;;;5112614;28;19912;-30
2023/07/18 03:45:09;;;;;;;;;;;14.70;78.20;;;;;;5112524;28;19915;-31
2023/07/18 03:47:36;;;;;;;;;;;14.70;78.20;;;;;;5112357;28;19915;-31
2023/07/18 03:50:02;;;;;;;;;;;14.70;78.30;;;;;;5112844;28;19965;-39
2023/07/18 03:52:28;;;;;;;;;;;14.60;78.20;;;;;;5112448;28;19916;-32
2023/07/18 03:54:53;;;;;;;;;;;14.60;78.20;;;;;;5112752;28;19964;-32
2023/07/18 03:57:19;;;;;;;;;;;14.70;78.20;;;;;;5112811;28;20382;-30
2023/07/18 03:59:44;;;;;;;;;;;14.70;78.20;;;;;;5112751;28;20475;-32
2023/07/18 04:02:12;;;;;;;;;;;14.80;78.20;;;;;;5112462;28;19999;-32
2023/07/18 04:04:37;;;;;;;;;;;14.80;78.80;;;;;;5112683;28;19920;-32
2023/07/18 04:07:03;;;;;;;;;;;14.80;78.10;;;;;;5112218;28;19936;-31
2023/07/18 04:09:28;;;;;;;;;;;14.70;78.10;;;;;;5112361;28;20003;-31
2023/07/18 04:11:54;;;;;;;;;;;14.80;78.20;;;;;;5112645;28;20006;-30
2023/07/18 04:14:19;;;;;;;;;;;14.70;78.10;;;;;;5112192;28;19911;-32
2023/07/18 04:16:45;;;;;;;;;;;14.70;78.20;;;;;;5112339;28;20376;-30
2023/07/18 04:19:10;;;;;;;;;;;14.70;78.20;;;;;;5112439;28;20015;-30
2023/07/18 04:21:36;;;;;;;;;;;14.70;78.30;;;;;;5112199;28;20279;-30
2023/07/18 04:24:01;;;;;;;;;;;14.70;78.20;;;;;;5112317;28;19911;-32
2023/07/18 04:26:27;;;;;;;;;;;14.80;78.30;;;;;;5112559;28;19939;-31
2023/07/18 04:28:52;;;;;;;;;;;14.80;78.20;;;;;;5115933;28;20375;-33
2023/07/18 04:31:18;;;;;;;;;;;14.80;78.20;;;;;;5116023;28;19912;-30
2023/07/18 04:33:43;;;;;;;;;;;14.80;78.20;;;;;;5115832;28;19912;-30
2023/07/18 04:36:08;;;;;;;;;;;14.70;78.20;;;;;;5115748;28;20291;-30
2023/07/18 04:38:34;;;;;;;;;;;14.80;78.30;;;;;;5115547;28;19922;-31
2023/07/18 04:41:00;;;;;;;;;;;14.80;78.30;;;;;;5115687;28;20388;-31
2023/07/18 04:43:27;;;;;;;;;;;14.80;78.30;;;;;;5097383;28;20030;-30
2023/07/18 04:45:52;;;;;;;;;;;14.80;78.20;;;;;;5115576;28;20375;-30
2023/07/18 04:48:18;;;;;;;;;;;14.80;78.20;;;;;;5115768;28;20393;-33
2023/07/18 04:50:44;;;;;;;;;;;14.90;78.20;;;;;;5115475;28;19912;-34
2023/07/18 04:53:10;;;;;;;;;;;14.90;78.20;;;;;;5115726;28;19935;-29
2023/07/18 04:55:36;;;;;;;;;;;14.90;78.20;;;;;;5115452;28;20480;-32
2023/07/18 04:58:03;;;;;;;;;;;15.00;78.20;;;;;;5115408;28;20003;-31
2023/07/18 05:00:29;;;;;;;;;;;15.00;78.10;;;;;;5115092;28;19973;-30
2023/07/18 05:02:54;;;;;;;;;;;15.00;78.00;;;;;;5115443;28;19912;-31
2023/07/18 05:05:20;;;;;;;;;;;15.10;78.00;;;;;;5115481;28;20390;-31
2023/07/18 05:07:47;;;;;;;;;;;15.10;77.90;;;;;;5115415;28;20317;-30
2023/07/18 05:10:13;;;;;;;;;;;15.20;77.90;;;;;;5115393;28;19919;-34
2023/07/18 05:12:39;;;;;;;;;;;15.20;77.80;;;;;;5115342;28;20367;-30
2023/07/18 05:15:04;;;;;;;;;;;15.30;77.70;;;;;;5114894;28;19919;-30
2023/07/18 05:17:30;;;;;;;;;;;15.40;77.60;;;;;;5115000;28;19985;-31
2023/07/18 05:19:56;;;;;;;;;;;15.40;77.50;;;;;;5114846;28;19923;-31
2023/07/18 05:22:21;;;;;;;;;;;15.50;77.40;;;;;;5114902;28;20004;-30
2023/07/18 05:24:47;;;;;;;;;;;15.60;77.30;;;;;;5114766;28;19916;-35
2023/07/18 05:27:13;;;;;;;;;;;15.70;77.30;;;;;;5115120;28;19912;-31
2023/07/18 05:29:38;;;;;;;;;;;15.70;77.20;;;;;;5114924;28;19915;-32
2023/07/18 05:32:05;;;;;;;;;;;15.70;77.10;;;;;;5114992;28;20340;-31
2023/07/18 05:34:31;;;;;;;;;;;15.80;77.10;;;;;;5114603;28;19915;-31
2023/07/18 05:36:58;;;;;;;;;;;15.80;77.00;;;;;;5114595;28;19912;-31
2023/07/18 05:39:23;;;;;;;;;;;15.90;77.00;;;;;;5113885;28;19923;-33
2023/07/18 05:41:49;;;;;;;;;;;15.90;76.90;;;;;;5114497;28;19911;-30
2023/07/18 05:44:16;;;;;;;;;;;15.90;76.90;;;;;;5114554;28;20454;-31
2023/07/18 05:46:42;;;;;;;;;;;15.90;76.90;;;;;;5114334;28;19922;-30
2023/07/18 05:49:07;;;;;;;;;;;15.90;76.90;;;;;;5114360;28;20419;-30
2023/07/18 05:51:33;;;;;;;;;;;15.90;76.80;;;;;;5114386;28;19911;-31
2023/07/18 05:53:58;;;;;;;;;;;16.00;76.70;;;;;;5114241;28;19912;-35
2023/07/18 05:56:24;;;;;;;;;;;16.00;76.70;;;;;;5114121;28;20282;-36
2023/07/18 05:58:49;;;;;;;;;;;16.10;76.70;;;;;;5113962;28;20378;-34
2023/07/18 06:01:15;;;;;;;;;;;16.20;76.50;;;;;;5114081;28;20328;-35
2023/07/18 06:03:40;;;;;;;;;;;16.20;76.40;;;;;;5114234;28;19912;-35
2023/07/18 06:06:07;;;;;;;;;;;16.20;76.30;;;;;;5113900;28;19911;-35
2023/07/18 06:08:32;;;;;;;;;;;16.20;76.20;;;;;;5114234;28;19916;-33
2023/07/18 06:10:58;;;;;;;;;;;16.30;76.20;;;;;;5113800;28;20008;-30
2023/07/18 06:13:23;;;;;;;;;;;16.40;76.10;;;;;;5113978;28;20015;-30
2023/07/18 06:15:52;;;;;;;;;;;16.40;76.00;;;;;;5113779;28;19965;-32
2023/07/18 06:18:18;;;;;;;;;;;16.50;76.00;;;;;;5113571;28;19924;-32
2023/07/18 06:20:43;;;;;;;;;;;16.50;75.90;;;;;;5113658;28;19912;-30
2023/07/18 06:23:09;;;;;;;;;;;16.50;75.80;;;;;;5113921;28;20291;-31
2023/07/18 06:25:35;;;;;;;;;;;16.60;75.80;;;;;;5113438;28;19911;-34
2023/07/18 06:28:02;;;;;;;;;;;16.60;75.70;;;;;;5113657;28;20331;-30
2023/07/18 06:30:28;;;;;;;;;;;16.70;75.70;;;;;;5113633;28;20370;-31
2023/07/18 06:32:53;;;;;;;;;;;16.70;75.50;;;;;;5113190;28;19912;-30
2023/07/18 06:35:19;;;;;;;;;;;16.80;75.50;;;;;;5113394;28;19912;-31
2023/07/18 06:37:44;;;;;;;;;;;16.80;75.40;;;;;;5113696;28;19970;-31
2023/07/18 06:40:11;;;;;;;;;;;16.80;75.30;;;;;;5113223;28;20375;-30
2023/07/18 06:42:36;;;;;;;;;;;16.90;75.30;;;;;;5113461;28;19912;-33
2023/07/18 06:45:03;;;;;;;;;;;16.90;75.30;;;;;;5113371;28;19934;-30
2023/07/18 06:47:29;;;;;;;;;;;17.00;75.30;;;;;;5112983;28;19915;-31
2023/07/18 06:49:54;;;;;;;;;;;17.00;75.10;;;;;;5112899;28;19939;-32
2023/07/18 06:52:20;;;;;;;;;;;17.00;75.00;;;;;;5113298;28;19955;-30
2023/07/18 06:54:46;;;;;;;;;;;17.10;75.00;;;;;;5113067;28;19998;-30
2023/07/18 06:57:12;;;;;;;;;;;17.10;74.90;;;;;;5094740;28;19911;-33
2023/07/18 06:59:38;;;;;;;;;;;17.10;74.80;;;;;;5113030;28;19926;-30
2023/07/18 07:02:03;;;;;;;;;;;17.10;74.70;;;;;;5112858;28;20286;-31
2023/07/18 07:04:29;;;;;;;;;;;17.20;74.60;;;;;;5112785;28;19996;-31
2023/07/18 07:06:55;;;;;;;;;;;17.20;74.50;;;;;;5112888;28;19911;-31
2023/07/18 07:09:21;;;;;;;;;;;17.30;74.50;;;;;;5112853;28;19918;-29
2023/07/18 07:11:46;;;;;;;;;;;17.40;74.20;;;;;;5113112;28;20002;-33
2023/07/18 07:14:12;;;;;;;;;;;17.40;74.10;;;;;;5112734;28;19953;-30
2023/07/18 07:16:37;;;;;;;;;;;17.50;74.00;;;;;;5112710;28;19919;-30
2023/07/18 07:19:05;;;;;;;;;;;17.50;73.90;;;;;;5112710;28;19943;-29
2023/07/18 07:21:31;;;;;;;;;;;17.60;73.70;;;;;;5112674;28;19912;-30
2023/07/18 07:23:56;;;;;;;;;;;17.60;73.60;;;;;;5112782;28;19918;-33
2023/07/18 07:26:22;;;;;;;;;;;17.60;73.20;;;;;;5112714;28;19912;-30
2023/07/18 07:28:47;;;;;;;;;;;17.70;73.20;;;;;;5112984;28;19916;-30
2023/07/18 07:31:14;;;;;;;;;;;17.70;73.80;;;;;;5112756;28;20011;-30
2023/07/18 07:33:40;;;;;;;;;;;17.70;73.00;;;;;;5112827;28;19918;-31
2023/07/18 07:36:06;;;;;;;;;;;17.80;73.00;;;;;;5112560;28;19911;-31
2023/07/18 07:38:32;;;;;;;;;;;17.80;73.00;;;;;;5112774;28;20006;-31
2023/07/18 07:40:57;;;;;;;;;;;17.90;72.90;;;;;;5112523;28;19999;-32
2023/07/18 07:43:24;;;;;;;;;;;17.90;72.80;;;;;;5112440;28;20456;-31
2023/07/18 07:45:49;;;;;;;;;;;18.00;72.70;;;;;;5093927;28;19972;-31
2023/07/18 07:48:15;;;;;;;;;;;18.10;72.00;;;;;;5112786;28;19919;-34
2023/07/18 07:50:42;;;;;;;;;;;18.10;72.20;;;;;;5112624;28;19919;-37
2023/07/18 07:53:07;;;;;;;;;;;18.10;72.20;;;;;;5093834;28;19923;-35
2023/07/18 07:55:33;;;;;;;;;;;18.20;71.60;;;;;;5112298;28;20290;-32
2023/07/18 07:57:58;;;;;;;;;;;18.20;71.60;;;;;;5093934;28;19943;-31
2023/07/18 08:00:24;;;;;;;;;;;18.30;71.40;;;;;;5112157;28;19970;-31
2023/07/18 08:02:49;;;;;;;;;;;18.30;71.50;;;;;;5114570;28;19919;-30
2023/07/18 08:05:15;;;;;;;;;;;18.40;70.80;;;;;;5116139;28;19912;-32
2023/07/18 08:07:42;;;;;;;;;;;18.40;71.70;;;;;;5116103;28;19943;-31
2023/07/18 08:10:08;;;;;;;;;;;18.50;71.20;;;;;;5116072;28;19975;-36
2023/07/18 08:12:34;;;;;;;;;;;18.60;71.00;;;;;;5115980;28;19912;-30
2023/07/18 08:14:59;;;;;;;;;;;18.60;70.90;;;;;;5116215;28;19911;-30
2023/07/18 08:17:25;;;;;;;;;;;18.70;70.90;;;;;;5115855;28;19943;-32
2023/07/18 08:19:50;;;;;;;;;;;18.70;70.70;;;;;;5116024;28;20378;-34
2023/07/18 08:22:16;;;;;;;;;;;18.80;70.40;;;;;;5115853;28;20371;-31
2023/07/18 08:24:41;;;;;;;;;;;18.90;70.30;;;;;;5115818;28;19919;-35
2023/07/18 08:27:07;;;;;;;;;;;18.90;70.00;;;;;;5115838;28;19920;-31
2023/07/18 08:29:33;;;;;;;;;;;19.00;69.60;;;;;;5115600;28;20360;-30
2023/07/18 08:31:58;;;;;;;;;;;19.00;69.50;;;;;;5115896;28;19912;-34
2023/07/18 08:34:24;;;;;;;;;;;19.10;69.40;;;;;;5115402;28;19918;-34
2023/07/18 08:36:50;;;;;;;;;;;19.10;69.20;;;;;;5115776;28;20002;-31
2023/07/18 08:39:16;;;;;;;;;;;19.20;69.00;;;;;;5115306;28;20034;-31
2023/07/18 08:41:43;;;;;;;;;;;19.30;68.50;;;;;;5115667;28;19912;-33
2023/07/18 08:44:09;;;;;;;;;;;19.30;68.50;;;;;;5115692;28;19968;-33
2023/07/18 08:46:34;;;;;;;;;;;19.40;68.40;;;;;;5115125;28;19916;-32
2023/07/18 08:49:01;;;;;;;;;;;19.40;68.10;;;;;;5115632;28;19912;-31
2023/07/18 08:51:28;;;;;;;;;;;19.50;68.00;;;;;;5115618;28;19911;-33
2023/07/18 08:53:53;;;;;;;;;;;19.50;68.10;;;;;;5115770;28;19912;-30
2023/07/18 08:56:19;;;;;;;;;;;19.60;68.00;;;;;;5115397;28;19912;-32
2023/07/18 08:58:44;;;;;;;;;;;19.70;67.80;;;;;;5115124;28;19924;-31
2023/07/18 09:01:10;;;;;;;;;;;19.70;67.60;;;;;;5115257;28;19912;-30
2023/07/18 09:03:35;;;;;;;;;;;19.80;67.60;;;;;;5115104;28;20302;-33
2023/07/18 09:06:01;;;;;;;;;;;19.90;67.50;;;;;;5096681;28;19915;-31
2023/07/18 09:08:27;;;;;;;;;;;20.00;67.00;;;;;;5114882;28;19908;-30
2023/07/18 09:11:02;;;;;;;;;;;20.10;66.90;;;;;;5114974;28;20378;-36
2023/07/18 09:13:27;;;;;;;;;;;20.10;66.40;;;;;;5115060;28;19912;-35
2023/07/18 09:15:53;;;;;;;;;;;20.20;65.90;;;;;;5114881;28;20476;-32
2023/07/18 09:18:18;;;;;;;;;;;20.30;65.50;;;;;;5114654;28;19947;-31
2023/07/18 09:20:44;;;;;;;;;;;20.30;65.40;;;;;;5114849;28;19911;-33
2023/07/18 09:23:10;;;;;;;;;;;20.40;65.00;;;;;;5114828;28;19915;-32
2023/07/18 09:25:41;;;;;;;;;;;20.40;64.70;;;;;;5114541;28;19916;-33
2023/07/18 09:28:13;;;;;;;;;;;20.50;65.00;;;;;;5114510;28;19915;-32
2023/07/18 09:30:39;;;;;;;;;;;20.60;64.70;;;;;;5114437;28;20014;-30
2023/07/18 09:33:07;;;;;;;;;;;20.70;64.40;;;;;;5114463;28;20219;-31
2023/07/18 09:35:37;;;;;;;;;;;20.70;64.20;;;;;;5114721;28;19915;-31
2023/07/18 09:38:02;;;;;;;;;;;20.80;64.20;;;;;;5114678;28;19951;-31
2023/07/18 09:40:28;;;;;;;;;;;20.80;64.20;;;;;;5114291;28;19943;-33
2023/07/18 09:42:53;;;;;;;;;;;20.90;64.00;;;;;;5114595;28;19916;-32
2023/07/18 09:45:20;;;;;;;;;;;21.00;63.70;;;;;;5114416;28;19914;-30
2023/07/18 09:47:46;;;;;;;;;;;21.00;63.80;;;;;;5113900;28;20365;-30
2023/07/18 09:50:14;;;;;;;;;;;21.10;63.60;;;;;;5114162;28;19998;-31
2023/07/18 09:52:47;;;;;;;;;;;21.10;63.30;;;;;;5114238;28;20348;-34
2023/07/18 09:55:13;;;;;;;;;;;21.10;62.90;;;;;;5114070;28;19908;-32
2023/07/18 09:57:42;;;;;;;;;;;21.10;62.80;;;;;;5113831;28;19960;-33
2023/07/18 10:00:11;;;;;;;;;;;21.20;62.90;;;;;;5114089;28;19947;-31
2023/07/18 10:02:36;;;;;;;;;;;21.20;62.90;;;;;;5114108;28;19931;-37
2023/07/18 10:05:03;;;;;;;;;;;21.30;62.80;;;;;;5114164;28;19907;-34
2023/07/18 10:07:35;;;;;;;;;;;21.30;61.90;;;;;;5113587;28;19908;-34
2023/07/18 10:10:00;;;;;;;;;;;21.30;61.60;;;;;;5113721;28;20307;-32
2023/07/18 10:12:26;;;;;;;;;;;21.30;61.50;;;;;;5114129;28;19908;-34
2023/07/18 10:14:56;;;;;;;;;;;21.40;59.30;;;;;;5113449;28;19912;-31
2023/07/18 10:17:25;;;;;;;;;;;21.40;59.10;;;;;;5113511;28;19908;-34
2023/07/18 10:19:50;;;;;;;;;;;21.50;59.50;;;;;;5113386;28;19954;-32
2023/07/18 10:22:29;;;;;;;;;;;21.50;59.50;;;;;;5113506;28;19955;-33
2023/07/18 10:24:58;;;;;;;;;;;21.50;59.00;;;;;;5113043;28;19908;-31
2023/07/18 10:27:33;;;;;;;;;;;21.60;59.30;;;;;;5113606;28;19915;-30
2023/07/18 10:30:06;;;;;;;;;;;21.60;59.30;;;;;;5114021;28;20004;-34
2023/07/18 10:32:32;;;;;;;;;;;21.60;57.60;;;;;;5113576;28;19908;-33
2023/07/18 10:34:58;;;;;;;;;;;21.70;58.40;;;;;;5113823;28;20019;-31
2023/07/18 10:37:27;;;;;;;;;;;21.70;57.50;;;;;;5113532;28;20359;-33
2023/07/18 10:39:53;;;;;;;;;;;21.80;58.10;;;;;;5113105;28;19915;-30
2023/07/18 10:42:21;;;;;;;;;;;21.80;57.90;;;;;;5094968;28;19908;-34
2023/07/18 10:44:47;;;;;;;;;;;21.90;57.00;;;;;;5113151;28;19907;-37
2023/07/18 10:47:17;;;;;;;;;;;21.90;56.80;;;;;;5112302;28;19998;-31
2023/07/18 10:49:43;;;;;;;;;;;21.90;56.30;;;;;;5112623;28;19991;-32
2023/07/18 10:52:08;;;;;;;;;;;21.90;56.40;;;;;;5112492;28;19986;-30
2023/07/18 10:54:34;;;;;;;;;;;21.90;55.80;;;;;;5112013;28;20015;-32
2023/07/18 10:57:00;;;;;;;;;;;21.90;55.20;;;;;;5112089;28;19955;-31
2023/07/18 10:59:25;;;;;;;;;;;21.90;55.30;;;;;;5112310;28;19959;-32
2023/07/18 11:01:51;;;;;;;;;;;22.00;56.10;;;;;;5112131;28;19907;-30
2023/07/18 11:04:17;;;;;;;;;;;22.00;56.40;;;;;;5112021;28;20519;-30
2023/07/18 11:06:49;;;;;;;;;;;22.10;56.10;;;;;;5111959;28;19998;-32
2023/07/18 11:09:15;;;;;;;;;;;22.20;56.00;;;;;;5112195;28;19908;-34
2023/07/18 11:11:40;;;;;;;;;;;22.20;55.70;;;;;;5111907;28;20359;-32
2023/07/18 11:14:06;;;;;;;;;;;22.20;55.60;;;;;;5112076;28;20333;-35
2023/07/18 11:16:32;;;;;;;;;;;22.30;55.90;;;;;;5111898;28;20439;-34
2023/07/18 11:18:59;;;;;;;;;;;22.40;56.10;;;;;;5112050;28;19950;-38
2023/07/18 11:21:25;;;;;;;;;;;22.50;55.80;;;;;;5112054;28;19908;-32
2023/07/18 11:23:51;;;;;;;;;;;22.50;54.90;;;;;;5112152;28;20255;-34
2023/07/18 11:26:18;;;;;;;;;;;22.60;55.10;;;;;;5112076;28;19908;-38
2023/07/18 11:28:44;;;;;;;;;;;22.60;54.60;;;;;;5111805;28;19908;-52
2023/07/18 11:31:26;;;;;;;;;;;22.60;54.20;;;;;;5111739;28;19908;-33
2023/07/18 11:33:53;;;;;;;;;;;22.70;54.80;;;;;;5112001;28;19907;-36
2023/07/18 11:36:19;;;;;;;;;;;22.70;55.00;;;;;;5111887;28;19912;-33
2023/07/18 11:38:47;;;;;;;;;;;22.90;55.10;;;;;;5115446;28;19938;-30
2023/07/18 11:41:13;;;;;;;;;;;23.00;55.20;;;;;;5115538;28;19912;-31
2023/07/18 11:43:41;;;;;;;;;;;23.10;55.40;;;;;;5115498;28;19941;-37
2023/07/18 11:46:08;;;;;;;;;;;23.20;55.10;;;;;;5052304;28;1769003;-39
2023/07/18 11:48:33;;;;;;;;;;;23.30;54.20;;;;;;5116931;28;20060;-36
2023/07/18 11:51:08;;;;;;;;;;;23.30;55.30;;;;;;5116744;28;19972;-35
2023/07/18 11:53:33;;;;;;;;;;;23.30;54.30;;;;;;5116364;28;19915;-38
2023/07/18 11:55:59;;;;;;;;;;;23.40;54.40;;;;;;5116664;28;20034;-34
2023/07/18 11:58:24;;;;;;;;;;;23.40;54.70;;;;;;5116241;28;19918;-31
2023/07/18 12:00:50;;;;;;;;;;;23.50;54.30;;;;;;5116531;28;19913;-35
2023/07/18 12:03:16;;;;;;;;;;;23.60;54.00;;;;;;5116653;28;19919;-35
2023/07/18 12:05:41;;;;;;;;;;;23.60;54.30;;;;;;5116041;28;19911;-33
2023/07/18 12:08:07;;;;;;;;;;;23.70;53.80;;;;;;5116281;28;19922;-34
2023/07/18 12:10:33;;;;;;;;;;;23.70;54.60;;;;;;5116329;28;19912;-33
2023/07/18 12:13:00;;;;;;;;;;;23.90;53.90;;;;;;5116394;28;19960;-33
2023/07/18 12:15:26;;;;;;;;;;;23.90;53.80;;;;;;5116275;28;19916;-34
2023/07/18 12:17:51;;;;;;;;;;;24.00;53.70;;;;;;5115911;28;20473;-34
2023/07/18 12:20:17;;;;;;;;;;;24.00;52.20;;;;;;5116177;28;19927;-31
2023/07/18 12:22:42;;;;;;;;;;;24.00;52.70;;;;;;5115810;28;20291;-30
2023/07/18 12:25:08;;;;;;;;;;;24.10;53.50;;;;;;5115785;28;19942;-30
2023/07/18 12:27:33;;;;;;;;;;;24.20;53.70;;;;;;5115633;28;20370;-32
2023/07/18 12:29:59;;;;;;;;;;;24.30;53.50;;;;;;5115817;28;19919;-33
2023/07/18 12:32:24;;;;;;;;;;;24.30;53.10;;;;;;5115871;28;19918;-31
2023/07/18 12:34:50;;;;;;;;;;;24.30;53.10;;;;;;5116011;28;19912;-34
2023/07/18 12:37:15;;;;;;;;;;;24.30;52.60;;;;;;5115624;28;19919;-35
2023/07/18 12:39:41;;;;;;;;;;;24.50;52.60;;;;;;5115456;28;19922;-35
2023/07/18 12:42:07;;;;;;;;;;;24.50;52.80;;;;;;5115749;28;19912;-31
2023/07/18 12:44:36;;;;;;;;;;;24.70;53.00;;;;;;5115743;28;19998;-32
2023/07/18 12:47:02;;;;;;;;;;;24.70;52.90;;;;;;5115209;28;19920;-35
2023/07/18 12:49:27;;;;;;;;;;;24.80;52.50;;;;;;5115110;28;19933;-34
2023/07/18 12:51:53;;;;;;;;;;;24.80;51.60;;;;;;5115333;28;20291;-34
2023/07/18 12:54:18;;;;;;;;;;;24.80;51.70;;;;;;5115258;28;19912;-33
2023/07/18 12:56:44;;;;;;;;;;;24.90;51.90;;;;;;5115497;28;19916;-35
2023/07/18 12:59:10;;;;;;;;;;;25.00;51.70;;;;;;5115246;28;19922;-37
2023/07/18 13:01:36;;;;;;;;;;;25.10;50.90;;;;;;5115153;28;20010;-34
2023/07/18 13:04:02;;;;;;;;;;;25.10;50.90;;;;;;5115359;28;19963;-33
2023/07/18 13:06:28;;;;;;;;;;;25.20;51.20;;;;;;5115229;28;20263;-35
2023/07/18 13:08:55;;;;;;;;;;;25.20;50.80;;;;;;5114892;28;19919;-33
2023/07/18 13:11:20;;;;;;;;;;;25.30;50.80;;;;;;5115145;28;19915;-33
2023/07/18 13:13:46;;;;;;;;;;;25.40;50.40;;;;;;5114887;28;19912;-31
2023/07/18 13:16:11;;;;;;;;;;;25.50;50.10;;;;;;5115026;28;20279;-34
2023/07/18 13:18:37;;;;;;;;;;;25.60;50.20;;;;;;5114990;28;19923;-34
2023/07/18 13:21:03;;;;;;;;;;;25.60;50.70;;;;;;5114812;28;19911;-31
2023/07/18 13:23:29;;;;;;;;;;;25.70;49.80;;;;;;5114705;28;19999;-34
2023/07/18 13:25:55;;;;;;;;;;;25.90;50.00;;;;;;5114721;28;20352;-34
2023/07/18 13:28:21;;;;;;;;;;;26.00;50.00;;;;;;5096503;28;20003;-32
2023/07/18 13:30:46;;;;;;;;;;;26.10;50.00;;;;;;5114782;28;19947;-34
2023/07/18 13:33:12;;;;;;;;;;;26.20;50.20;;;;;;5114966;28;20403;-34
2023/07/18 13:35:37;;;;;;;;;;;26.20;50.10;;;;;;5114516;28;20302;-31
2023/07/18 13:38:03;;;;;;;;;;;26.20;50.60;;;;;;5114543;28;20060;-32
2023/07/18 13:40:28;;;;;;;;;;;26.10;51.20;;;;;;5114568;28;20371;-37
2023/07/18 13:42:54;;;;;;;;;;;26.10;51.30;;;;;;5114507;28;19911;-34
2023/07/18 13:45:20;;;;;;;;;;;26.10;51.20;;;;;;5114306;28;20275;-32
2023/07/18 13:47:45;;;;;;;;;;;26.10;51.00;;;;;;5114044;28;19927;-34
2023/07/18 13:50:11;;;;;;;;;;;26.20;50.60;;;;;;5114293;28;19973;-31
2023/07/18 13:52:36;;;;;;;;;;;26.40;50.40;;;;;;5114573;28;20367;-33
2023/07/18 13:55:02;;;;;;;;;;;26.50;50.20;;;;;;5114359;28;19923;-36
2023/07/18 13:57:27;;;;;;;;;;;26.60;50.00;;;;;;5114319;28;20281;-33
2023/07/18 13:59:53;;;;;;;;;;;26.70;49.70;;;;;;5113279;28;20272;-34
2023/07/18 14:02:18;;;;;;;;;;;26.80;49.50;;;;;;5113923;28;19966;-34
2023/07/18 14:04:45;;;;;;;;;;;26.90;48.60;;;;;;5114062;28;20272;-36
2023/07/18 14:07:10;;;;;;;;;;;26.90;48.40;;;;;;5114142;28;19911;-36
2023/07/18 14:09:36;;;;;;;;;;;26.90;48.90;;;;;;5114099;28;19934;-36